Time;durP1;ratioP1;P1;durP2;ratioP2;P2;SDS_P1;SDS_P2;PMS_P1;PMS_P2;Temp;Humidity;BMP_temperature;BMP_pressure;BME280_temperature;BME280_humidity;BME280_pressure;Samples;Min_cycle;Max_cycle;Signal;HPM_P1;HPM_P2
2022/06/16 00:01:24;;;;;;;6.03;5.40;;;19.90;61.30;;;;;;6220214;23;20180;-90
2022/06/16 00:03:50;;;;;;;11.52;5.50;;;19.90;61.20;;;;;;6219975;23;20233;-90
2022/06/16 00:06:15;;;;;;;8.37;7.10;;;19.90;61.50;;;;;;6220007;23;20565;-90
2022/06/16 00:08:41;;;;;;;8.70;5.60;;;19.80;61.50;;;;;;6222530;23;20440;-91
2022/06/16 00:11:16;;;;;;;7.30;5.80;;;19.80;61.40;;;;;;6220781;23;20239;-90
2022/06/16 00:13:42;;;;;;;6.32;5.72;;;19.80;61.50;;;;;;6219920;23;20188;-91
2022/06/16 00:16:09;;;;;;;6.20;5.60;;;19.70;61.90;;;;;;6219996;23;20595;-91
2022/06/16 00:18:35;;;;;;;7.18;5.25;;;19.70;62.30;;;;;;6219714;23;20156;-92
2022/06/16 00:21:01;;;;;;;6.30;5.40;;;19.70;62.50;;;;;;6219708;23;20163;-91
2022/06/16 00:23:27;;;;;;;5.13;4.63;;;19.60;62.40;;;;;;6246599;22;20176;-90
2022/06/16 00:25:53;;;;;;;6.50;5.50;;;19.70;62.40;;;;;;6219040;23;20157;-91
2022/06/16 00:28:18;;;;;;;7.83;6.27;;;19.50;62.50;;;;;;6246319;23;20448;-91
2022/06/16 00:30:44;;;;;;;7.93;6.40;;;19.50;62.90;;;;;;6246681;23;20228;-91
2022/06/16 00:33:10;;;;;;;8.70;6.00;;;19.50;63.30;;;;;;6219759;23;20176;-91
2022/06/16 00:35:36;;;;;;;6.93;6.10;;;19.50;63.00;;;;;;6220167;23;20664;-92
2022/06/16 00:38:02;;;;;;;11.93;5.93;;;19.50;62.80;;;;;;6220510;23;20383;-91
2022/06/16 00:40:28;;;;;;;8.10;5.90;;;19.50;63.40;;;;;;6220664;23;20163;-89
2022/06/16 00:42:53;;;;;;;6.37;5.77;;;19.40;63.50;;;;;;6221445;23;20470;-89
2022/06/16 00:45:44;;;;;;;6.47;5.73;;;19.40;63.20;;;;;;6228981;23;20383;-90
2022/06/16 00:48:20;;;;;;;6.70;5.32;;;19.40;63.00;;;;;;6238053;23;20306;-91
2022/06/16 00:50:51;;;;;;;5.70;5.20;;;19.40;63.20;;;;;;6212081;23;20159;-91
2022/06/16 00:53:18;;;;;;;7.28;6.25;;;19.40;63.00;;;;;;6230294;23;20184;-90
2022/06/16 00:55:44;;;;;;;7.80;6.32;;;19.30;63.30;;;;;;6229720;23;20199;-90
2022/06/16 00:58:10;;;;;;;7.10;5.57;;;19.20;63.80;;;;;;6228586;23;20183;-89
2022/06/16 01:00:47;;;;;;;6.80;5.70;;;19.30;63.60;;;;;;6220591;23;20507;-90
2022/06/16 01:04:51;;;;;;;8.07;5.03;;;19.20;64.70;;;;;;6220418;23;20485;-90
2022/06/16 01:06:01;;;;;;;6.38;5.72;;;19.20;64.50;;;;;;6249466;23;20162;-90
2022/06/16 01:08:27;;;;;;;8.75;6.07;;;19.20;64.20;;;;;;6230992;23;20153;-90
2022/06/16 01:10:58;;;;;;;8.50;6.47;;;19.20;63.60;;;;;;6242583;23;20210;-89
2022/06/16 01:13:44;;;;;;;8.43;5.60;;;19.20;63.40;;;;;;6259914;22;20195;-91
2022/06/16 01:16:32;;;;;;;7.13;5.70;;;19.20;63.40;;;;;;6220629;23;20617;-90
2022/06/16 01:19:16;;;;;;;8.63;6.38;;;19.10;64.00;;;;;;6246349;23;20587;-91
2022/06/16 01:22:12;;;;;;;10.25;6.78;;;19.10;63.70;;;;;;6219674;23;20215;-91
2022/06/16 01:24:55;;;;;;;8.48;6.75;;;19.00;63.80;;;;;;6207706;23;20157;-91
2022/06/16 01:27:49;;;;;;;6.25;5.50;;;19.00;64.00;;;;;;6219333;23;20152;-91
2022/06/16 01:30:19;;;;;;;7.10;5.60;;;18.90;64.20;;;;;;6219592;23;20144;-91
2022/06/16 01:32:53;;;;;;;7.78;6.30;;;18.90;64.00;;;;;;6219369;23;20187;-91
2022/06/16 01:35:45;;;;;;;7.13;5.65;;;18.90;64.00;;;;;;6219676;23;20188;-91
2022/06/16 01:38:22;;;;;;;7.15;6.28;;;18.90;64.10;;;;;;6219099;23;20501;-90
2022/06/16 01:40:57;;;;;;;10.20;5.65;;;18.80;64.40;;;;;;6219354;23;20231;-90
2022/06/16 01:43:52;;;;;;;7.57;6.90;;;18.80;64.20;;;;;;6219268;23;20298;-90
2022/06/16 01:46:29;;;;;;;11.68;9.57;;;18.80;63.90;;;;;;6219694;23;20579;-90
2022/06/16 01:49:01;;;;;;;25.73;20.10;;;18.80;64.30;;;;;;6219310;23;20176;-90
2022/06/16 01:51:48;;;;;;;62.00;48.67;;;18.70;64.40;;;;;;6219170;23;20156;-90
2022/06/16 01:54:37;;;;;;;66.80;55.65;;;18.70;64.50;;;;;;6219292;23;20235;-91
2022/06/16 01:57:17;;;;;;;60.92;45.97;;;18.70;64.00;;;;;;6218149;23;20590;-91
2022/06/16 01:59:58;;;;;;;44.10;37.70;;;18.60;64.40;;;;;;6224969;23;20203;-90
2022/06/16 02:02:27;;;;;;;31.00;25.42;;;18.50;65.40;;;;;;6219047;23;20192;-90
2022/06/16 02:05:05;;;;;;;22.42;20.02;;;18.50;65.20;;;;;;6219504;23;20156;-90
2022/06/16 02:08:15;;;;;;;15.18;13.60;;;18.50;65.60;;;;;;6219170;23;20163;-90
2022/06/16 02:10:44;;;;;;;13.57;10.60;;;18.50;65.00;;;;;;6248402;23;20131;-90
2022/06/16 02:13:15;;;;;;;9.45;8.55;;;18.40;65.00;;;;;;6218829;23;20245;-89
2022/06/16 02:15:51;;;;;;;7.75;7.05;;;18.40;65.10;;;;;;6219381;23;20157;-90
2022/06/16 02:18:21;;;;;;;10.40;7.40;;;18.30;64.90;;;;;;6246146;23;20144;-90
2022/06/16 02:20:58;;;;;;;10.20;6.57;;;18.30;64.80;;;;;;6220147;23;20274;-90
2022/06/16 02:23:24;;;;;;;8.57;7.25;;;18.40;63.90;;;;;;6220742;23;20211;-90
2022/06/16 02:25:54;;;;;;;7.43;6.67;;;18.30;64.10;;;;;;6220710;23;20203;-89
2022/06/16 02:28:20;;;;;;;8.32;6.25;;;18.30;63.40;;;;;;6220447;23;20156;-90
2022/06/16 02:30:53;;;;;;;7.38;6.53;;;18.20;64.00;;;;;;6220618;23;20152;-90
2022/06/16 02:33:48;;;;;;;7.85;7.00;;;18.10;64.20;;;;;;6220577;23;20184;-90
2022/06/16 02:36:43;;;;;;;13.05;6.60;;;18.10;64.40;;;;;;6220967;23;20156;-90
2022/06/16 02:39:28;;;;;;;9.63;7.28;;;18.20;64.10;;;;;;6196545;23;20160;-89
2022/06/16 02:42:02;;;;;;;8.15;6.80;;;18.10;64.30;;;;;;6224051;22;20279;-89
2022/06/16 02:44:55;;;;;;;7.70;6.43;;;18.00;64.10;;;;;;6221426;23;20155;-91
2022/06/16 02:47:45;;;;;;;10.82;7.90;;;18.10;63.70;;;;;;6223749;23;20235;-89
2022/06/16 02:50:28;;;;;;;9.05;6.63;;;18.00;64.30;;;;;;6225909;23;20156;-89
2022/06/16 02:53:15;;;;;;;7.78;6.70;;;17.90;64.60;;;;;;6226125;23;20650;-90
2022/06/16 02:55:45;;;;;;;8.25;7.45;;;17.90;64.30;;;;;;6252090;23;20144;-91
2022/06/16 02:58:16;;;;;;;6.93;6.15;;;17.90;64.70;;;;;;6226905;23;20168;-90
2022/06/16 03:00:45;;;;;;;9.63;7.25;;;17.90;64.20;;;;;;6237855;23;20160;-91
2022/06/16 03:03:23;;;;;;;7.65;6.32;;;17.80;64.40;;;;;;6239758;23;20187;-90
2022/06/16 03:05:52;;;;;;;7.55;6.85;;;17.80;64.50;;;;;;6267875;23;20681;-90
2022/06/16 03:08:18;;;;;;;9.15;7.43;;;17.80;64.70;;;;;;6242935;23;20162;-92
2022/06/16 03:10:53;;;;;;;8.32;6.70;;;17.70;65.00;;;;;;6244215;23;20152;-92
2022/06/16 03:13:25;;;;;;;8.45;7.07;;;17.80;64.40;;;;;;6221530;23;20200;-91
2022/06/16 03:15:53;;;;;;;8.40;6.18;;;17.80;63.20;;;;;;6248865;23;20602;-91
2022/06/16 03:18:20;;;;;;;7.63;6.93;;;17.70;63.90;;;;;;6221311;23;20171;-91
2022/06/16 03:20:47;;;;;;;9.40;6.65;;;17.70;63.70;;;;;;6221657;23;20164;-91
2022/06/16 03:23:13;;;;;;;8.40;6.93;;;17.70;63.70;;;;;;6221725;23;20200;-91
2022/06/16 03:25:40;;;;;;;10.30;7.40;;;17.70;63.30;;;;;;6221965;23;20156;-91
2022/06/16 03:28:06;;;;;;;13.27;7.38;;;17.60;63.70;;;;;;6222448;23;20876;-91
2022/06/16 03:30:33;;;;;;;10.02;6.68;;;17.60;63.60;;;;;;6222683;23;20156;-90
2022/06/16 03:33:00;;;;;;;11.00;6.50;;;17.60;63.80;;;;;;6221900;23;20263;-90
2022/06/16 03:35:26;;;;;;;13.43;7.88;;;17.60;64.30;;;;;;6227225;23;20164;-90
2022/06/16 03:37:52;;;;;;;11.38;8.10;;;17.50;64.30;;;;;;6263637;23;20156;-91
2022/06/16 03:40:18;;;;;;;13.80;6.60;;;17.50;63.90;;;;;;6245274;23;20212;-90
2022/06/16 03:42:44;;;;;;;9.75;6.85;;;17.60;63.30;;;;;;6231082;23;20287;-92
2022/06/16 03:45:10;;;;;;;7.67;6.87;;;17.60;63.90;;;;;;6222054;23;20606;-90
2022/06/16 03:47:36;;;;;;;7.20;6.25;;;17.50;63.10;;;;;;6248727;23;20368;-90
2022/06/16 03:50:02;;;;;;;9.37;7.23;;;17.60;62.40;;;;;;6221738;23;20157;-90
2022/06/16 03:52:28;;;;;;;10.07;7.40;;;17.60;62.20;;;;;;6222066;23;20178;-89
2022/06/16 03:54:53;;;;;;;9.33;6.17;;;17.60;62.10;;;;;;6248519;23;20187;-91
2022/06/16 03:57:20;;;;;;;10.90;8.03;;;17.60;62.70;;;;;;6221316;23;20156;-92
2022/06/16 03:59:46;;;;;;;9.48;6.60;;;17.60;62.40;;;;;;6220153;23;20239;-91
2022/06/16 04:02:12;;;;;;;12.57;7.17;;;17.60;61.40;;;;;;6219373;23;20222;-90
2022/06/16 04:04:40;;;;;;;7.83;5.90;;;17.60;61.40;;;;;;6219843;23;20582;-91
2022/06/16 04:07:06;;;;;;;10.82;6.57;;;17.60;61.30;;;;;;6219782;23;20157;-92
2022/06/16 04:09:32;;;;;;;7.80;7.00;;;17.60;61.10;;;;;;6219799;23;20605;-90
2022/06/16 04:11:58;;;;;;;10.02;6.82;;;17.60;61.20;;;;;;6219650;22;20160;-90
2022/06/16 04:14:24;;;;;;;8.70;7.03;;;17.60;61.80;;;;;;6220102;23;20199;-90
2022/06/16 04:16:52;;;;;;;13.00;6.77;;;17.60;61.40;;;;;;6220058;23;20160;-91
2022/06/16 04:19:23;;;;;;;7.63;6.43;;;17.70;61.70;;;;;;6220154;23;20168;-91
2022/06/16 04:21:52;;;;;;;9.38;6.32;;;17.70;61.50;;;;;;6220041;22;20644;-91
2022/06/16 04:24:53;;;;;;;6.78;5.95;;;17.70;62.20;;;;;;6220406;23;20191;-90
2022/06/16 04:27:18;;;;;;;7.82;6.07;;;17.70;62.00;;;;;;6220121;23;20201;-90
2022/06/16 04:29:44;;;;;;;8.73;6.17;;;17.90;60.30;;;;;;6220236;23;20152;-90
2022/06/16 04:32:10;;;;;;;12.53;6.83;;;18.00;59.50;;;;;;6220169;22;20706;-91
2022/06/16 04:34:37;;;;;;;7.30;6.50;;;18.00;60.00;;;;;;6220392;23;20184;-90
2022/06/16 04:37:03;;;;;;;8.05;6.68;;;18.00;59.50;;;;;;6226399;23;20595;-90
2022/06/16 04:39:28;;;;;;;9.50;6.63;;;18.00;59.70;;;;;;6221692;23;20248;-90
2022/06/16 04:41:54;;;;;;;7.37;6.63;;;18.10;59.50;;;;;;6222207;22;20419;-90
2022/06/16 04:44:21;;;;;;;10.88;7.32;;;18.10;58.90;;;;;;6222790;23;20153;-90
2022/06/16 04:46:46;;;;;;;11.10;7.25;;;18.20;58.50;;;;;;6197369;23;20184;-90
2022/06/16 04:49:12;;;;;;;11.70;6.87;;;18.20;58.90;;;;;;6221730;23;20598;-90
2022/06/16 04:51:38;;;;;;;8.67;7.60;;;18.20;57.80;;;;;;6221688;23;20206;-90
2022/06/16 04:54:04;;;;;;;12.67;6.90;;;18.20;57.90;;;;;;6248344;22;20391;-89
2022/06/16 04:56:29;;;;;;;8.43;6.03;;;18.20;58.00;;;;;;6220975;23;20668;-89
2022/06/16 04:58:55;;;;;;;10.53;6.67;;;18.30;57.60;;;;;;6220020;23;20157;-90
2022/06/16 05:01:21;;;;;;;8.40;6.23;;;18.30;57.50;;;;;;6220368;23;20160;-90
2022/06/16 05:03:47;;;;;;;9.47;6.37;;;18.30;57.50;;;;;;6220579;23;20173;-90
2022/06/16 05:06:12;;;;;;;8.70;6.63;;;18.30;57.40;;;;;;6221070;23;20152;-90
2022/06/16 05:08:38;;;;;;;6.13;5.53;;;18.30;57.70;;;;;;6220959;23;20454;-90
2022/06/16 05:11:04;;;;;;;7.17;6.47;;;18.30;58.20;;;;;;6221123;23;20152;-90
2022/06/16 05:13:29;;;;;;;9.00;5.90;;;18.30;58.00;;;;;;6252615;22;20281;-90
2022/06/16 05:15:55;;;;;;;8.27;6.23;;;18.40;57.60;;;;;;6229142;23;20167;-89
2022/06/16 05:18:21;;;;;;;7.30;6.60;;;18.90;56.40;;;;;;6256651;23;20148;-90
2022/06/16 05:20:47;;;;;;;8.80;5.87;;;19.70;54.70;;;;;;6225246;23;20388;-90
2022/06/16 05:23:13;;;;;;;6.83;5.00;;;20.70;52.60;;;;;;6230366;23;20283;-88
2022/06/16 05:25:40;;;;;;;7.13;5.20;;;21.60;48.90;;;;;;6227483;23;20208;-90
2022/06/16 05:28:07;;;;;;;6.37;5.63;;;22.40;47.10;;;;;;6224961;23;20406;-90
2022/06/16 05:30:33;;;;;;;7.17;6.03;;;23.30;44.00;;;;;;6224754;23;20902;-90
2022/06/16 05:32:59;;;;;;;5.80;4.77;;;24.00;41.00;;;;;;6225169;23;20894;-89
2022/06/16 05:35:25;;;;;;;7.37;5.97;;;24.40;40.30;;;;;;6223600;23;20385;-89
2022/06/16 05:37:51;;;;;;;8.50;5.67;;;24.80;39.10;;;;;;6251522;23;20156;-90
2022/06/16 05:40:17;;;;;;;9.57;5.57;;;24.90;38.30;;;;;;6226705;23;20402;-90
2022/06/16 05:42:42;;;;;;;8.07;5.30;;;25.00;37.20;;;;;;6227159;23;20195;-90
2022/06/16 05:45:11;;;;;;;9.40;4.93;;;25.00;36.90;;;;;;6231001;23;20606;-92
2022/06/16 05:47:37;;;;;;;8.60;5.20;;;25.00;37.50;;;;;;6227939;23;20208;-92
2022/06/16 05:50:05;;;;;;;7.40;5.50;;;25.20;36.90;;;;;;6203150;23;21084;-90
2022/06/16 05:52:31;;;;;;;9.20;5.30;;;25.30;36.90;;;;;;6227688;23;20403;-90
2022/06/16 05:54:56;;;;;;;6.90;5.27;;;25.10;37.30;;;;;;6227758;23;20380;-90
2022/06/16 05:57:22;;;;;;;8.70;5.60;;;25.00;37.70;;;;;;6226558;23;20157;-91
2022/06/16 05:59:48;;;;;;;7.67;5.50;;;25.10;36.70;;;;;;6255039;23;20178;-91
2022/06/16 06:02:17;;;;;;;7.17;5.60;;;25.00;37.20;;;;;;6229742;23;20196;-90
2022/06/16 06:04:44;;;;;;;11.87;6.43;;;24.60;39.10;;;;;;6241512;23;20279;-89
2022/06/16 06:07:10;;;;;;;6.63;4.93;;;24.00;40.20;;;;;;6238864;22;20407;-89
2022/06/16 06:17:45;;;;;;;9.00;6.20;;;24.50;37.90;;;;;;6247888;23;20502;-89
2022/06/16 06:20:12;;;;;;;9.00;5.40;;;24.20;39.10;;;;;;6220411;23;20391;-91
2022/06/16 06:22:38;;;;;;;5.97;5.33;;;24.50;39.00;;;;;;6220151;23;20445;-90
2022/06/16 06:25:04;;;;;;;7.87;6.40;;;25.00;37.70;;;;;;6220550;23;20379;-90
2022/06/16 06:27:34;;;;;;;10.57;5.83;;;25.40;36.40;;;;;;6220898;23;20163;-91
2022/06/16 06:30:04;;;;;;;8.17;6.80;;;25.50;36.00;;;;;;6220374;23;20387;-90
2022/06/16 06:32:30;;;;;;;5.73;4.77;;;25.70;35.70;;;;;;6221326;23;20798;-90
2022/06/16 06:34:56;;;;;;;5.83;5.33;;;25.80;34.90;;;;;;6221514;23;20379;-91
2022/06/16 06:37:25;;;;;;;6.40;4.90;;;25.80;35.20;;;;;;6221001;23;20407;-90
2022/06/16 06:39:51;;;;;;;7.77;5.30;;;25.90;34.40;;;;;;6221798;23;20848;-90
2022/06/16 06:42:17;;;;;;;7.63;5.20;;;25.80;35.10;;;;;;6221650;23;20714;-89
2022/06/16 06:44:43;;;;;;;11.47;5.90;;;25.60;36.30;;;;;;6248750;23;20391;-90
2022/06/16 06:47:23;;;;;;;6.20;5.00;;;25.80;35.70;;;;;;6221470;23;20394;-90
2022/06/16 06:49:49;;;;;;;6.63;5.00;;;25.90;34.70;;;;;;6224126;23;20148;-90
2022/06/16 06:52:15;;;;;;;5.87;4.97;;;25.80;34.80;;;;;;6249949;22;20402;-89
2022/06/16 06:54:43;;;;;;;9.93;5.30;;;25.50;35.40;;;;;;6223961;23;20458;-89
2022/06/16 06:57:11;;;;;;;5.70;5.20;;;25.30;36.10;;;;;;6224667;23;20726;-89
2022/06/16 06:59:37;;;;;;;8.10;5.77;;;25.20;36.20;;;;;;6223425;23;21082;-88
2022/06/16 07:02:03;;;;;;;5.83;5.00;;;25.20;36.60;;;;;;6223714;22;20429;-91
2022/06/16 07:04:29;;;;;;;6.60;5.87;;;25.20;37.00;;;;;;6225064;23;20194;-90
2022/06/16 07:06:55;;;;;;;8.30;5.87;;;25.40;36.10;;;;;;6224126;23;20385;-91
2022/06/16 07:09:26;;;;;;;8.03;5.40;;;25.40;36.20;;;;;;6224890;23;20155;-90
2022/06/16 07:11:52;;;;;;;6.73;5.63;;;25.10;37.30;;;;;;6199553;22;20155;-90
2022/06/16 07:14:18;;;;;;;9.07;6.90;;;25.00;36.40;;;;;;6224088;23;20405;-90
2022/06/16 07:16:44;;;;;;;7.17;5.20;;;24.80;36.90;;;;;;6223615;23;20619;-88
2022/06/16 07:19:09;;;;;;;6.33;5.73;;;24.80;36.80;;;;;;6224204;23;20243;-90
2022/06/16 07:21:35;;;;;;;8.07;6.47;;;24.80;36.70;;;;;;6225216;23;20210;-89
2022/06/16 07:24:01;;;;;;;8.47;5.47;;;24.70;37.20;;;;;;6226237;23;20598;-89
2022/06/16 07:26:27;;;;;;;11.97;6.93;;;24.60;38.70;;;;;;6226530;23;20444;-89
2022/06/16 07:28:52;;;;;;;6.30;4.97;;;24.60;37.80;;;;;;6228678;23;20152;-89
2022/06/16 07:31:18;;;;;;;9.80;5.67;;;24.30;38.00;;;;;;6233620;23;20141;-89
2022/06/16 07:33:44;;;;;;;6.23;5.63;;;24.00;38.70;;;;;;6229295;23;20176;-89
2022/06/16 07:36:13;;;;;;;7.50;6.13;;;23.70;39.20;;;;;;6225171;23;20228;-90
2022/06/16 07:38:38;;;;;;;9.00;6.07;;;23.40;40.30;;;;;;6225731;23;20386;-89
2022/06/16 07:43:48;;;;;;;5.83;5.10;;;23.10;41.00;;;;;;6254341;22;20206;-90
2022/06/16 07:46:14;;;;;;;9.63;5.50;;;22.90;41.50;;;;;;6226463;23;20403;-90
2022/06/16 07:48:40;;;;;;;5.40;4.50;;;22.70;42.00;;;;;;6226722;23;20159;-90
2022/06/16 07:51:05;;;;;;;7.77;5.50;;;22.60;43.40;;;;;;6227680;23;20546;-89
2022/06/16 07:53:32;;;;;;;8.60;5.60;;;22.50;43.70;;;;;;6227222;23;20390;-89
2022/06/16 07:55:58;;;;;;;8.67;5.73;;;22.50;43.90;;;;;;6227149;23;20164;-88
2022/06/16 07:58:29;;;;;;;6.60;5.43;;;22.50;43.10;;;;;;6226161;23;20462;-91
2022/06/16 08:00:55;;;;;;;5.50;4.90;;;22.40;43.30;;;;;;6227261;23;20868;-88
2022/06/16 08:03:26;;;;;;;5.57;4.80;;;22.40;43.30;;;;;;6227435;23;20924;-89
2022/06/16 08:05:53;;;;;;;10.97;5.33;;;22.20;43.10;;;;;;6227467;23;20429;-88
2022/06/16 08:08:22;;;;;;;5.60;4.60;;;22.10;43.70;;;;;;6227972;23;20395;-91
2022/06/16 08:10:48;;;;;;;7.60;5.53;;;21.90;44.90;;;;;;6255207;23;20774;-89
2022/06/16 08:13:14;;;;;;;11.17;5.10;;;21.90;44.40;;;;;;6229332;23;20420;-88
2022/06/16 08:15:45;;;;;;;6.10;4.17;;;21.80;43.90;;;;;;6229481;23;20379;-90
2022/06/16 08:18:13;;;;;;;5.60;4.30;;;21.70;44.90;;;;;;6229106;23;20702;-89
2022/06/16 08:20:39;;;;;;;5.17;4.37;;;21.90;42.50;;;;;;6229130;23;20411;-88
2022/06/16 08:23:05;;;;;;;4.97;3.63;;;22.10;40.90;;;;;;6229218;23;20434;-90
2022/06/16 08:25:31;;;;;;;4.07;3.03;;;22.10;40.20;;;;;;6229553;23;20191;-89
2022/06/16 08:27:58;;;;;;;4.97;3.73;;;22.10;39.20;;;;;;6228677;23;20392;-88
2022/06/16 08:30:24;;;;;;;8.37;3.40;;;22.20;38.10;;;;;;6228620;23;20383;-88
2022/06/16 08:32:51;;;;;;;4.90;2.93;;;22.20;37.60;;;;;;6231383;23;20407;-89
2022/06/16 08:35:17;;;;;;;5.20;3.73;;;22.10;38.20;;;;;;6262230;23;20375;-90
2022/06/16 08:37:42;;;;;;;4.70;3.67;;;22.10;38.90;;;;;;6238214;23;20455;-87
2022/06/16 08:40:10;;;;;;;9.07;3.57;;;22.00;39.20;;;;;;6230696;23;20410;-89
2022/06/16 08:42:56;;;;;;;5.77;3.47;;;22.10;38.40;;;;;;6227752;23;20244;-90
2022/06/16 08:45:32;;;;;;;5.53;3.40;;;22.20;37.70;;;;;;6227231;23;20694;-90
2022/06/16 08:48:12;;;;;;;4.03;2.77;;;22.20;38.10;;;;;;6228744;23;20375;-89
2022/06/16 08:51:06;;;;;;;4.53;3.40;;;22.20;37.90;;;;;;6227866;23;20390;-89
2022/06/16 08:53:35;;;;;;;5.47;3.40;;;22.30;37.50;;;;;;6227706;23;20399;-88
2022/06/16 08:56:22;;;;;;;6.93;4.30;;;22.40;38.60;;;;;;6226719;23;20407;-89
2022/06/16 08:59:02;;;;;;;7.00;3.67;;;22.40;38.70;;;;;;6225236;23;20391;-90
2022/06/16 09:01:59;;;;;;;6.10;3.50;;;22.50;38.90;;;;;;6225473;23;20470;-87
2022/06/16 09:04:28;;;;;;;4.80;3.97;;;22.50;38.20;;;;;;6226533;23;20379;-88
2022/06/16 09:06:56;;;;;;;5.53;3.97;;;22.40;37.90;;;;;;6226513;23;20438;-88
2022/06/16 09:13:07;;;;;;;3.57;3.00;;;22.40;37.60;;;;;;6252047;22;20410;-90
2022/06/16 09:16:05;;;;;;;4.97;3.60;;;22.30;37.50;;;;;;6224328;23;20470;-89
2022/06/16 09:18:53;;;;;;;7.60;3.90;;;22.40;36.10;;;;;;6225318;23;20382;-89
2022/06/16 09:21:21;;;;;;;5.40;3.97;;;22.50;37.20;;;;;;6253266;23;20376;-90
2022/06/16 09:23:53;;;;;;;6.43;3.90;;;22.50;36.90;;;;;;6225783;23;20445;-89
2022/06/16 09:26:49;;;;;;;6.43;3.80;;;22.40;36.70;;;;;;6225365;23;20451;-88
2022/06/16 09:29:23;;;;;;;6.20;4.00;;;22.50;36.90;;;;;;6180213;23;20383;-88
2022/06/16 09:32:13;;;;;;;4.23;3.67;;;22.40;37.00;;;;;;6226205;22;20393;-88
2022/06/16 09:34:58;;;;;;;6.50;3.77;;;22.40;37.10;;;;;;6202769;23;20402;-90
2022/06/16 09:37:38;;;;;;;4.50;3.33;;;22.30;38.10;;;;;;6224745;23;20415;-90
2022/06/16 09:40:21;;;;;;;4.50;2.60;;;22.30;37.80;;;;;;6225089;23;20387;-90
2022/06/16 09:42:51;;;;;;;4.03;3.00;;;22.60;36.60;;;;;;6225479;23;20928;-92
2022/06/16 09:46:11;;;;;;;5.10;3.30;;;22.70;36.20;;;;;;6230426;23;20390;-89
2022/06/16 09:48:41;;;;;;;5.13;3.70;;;22.70;36.20;;;;;;6139591;23;20378;-90
2022/06/16 09:51:24;;;;;;;4.13;2.90;;;22.80;36.10;;;;;;6163315;23;20359;-90
2022/06/16 09:54:08;;;;;;;4.53;3.60;;;22.80;35.90;;;;;;6199789;23;20403;-88
2022/06/16 09:56:49;;;;;;;4.10;3.27;;;22.80;35.90;;;;;;6251802;23;20900;-90
2022/06/16 09:59:31;;;;;;;3.10;2.90;;;22.90;36.50;;;;;;6226192;23;20393;-90
2022/06/16 10:02:18;;;;;;;6.20;3.23;;;22.90;36.00;;;;;;6225855;22;20770;-90
2022/06/16 10:04:48;;;;;;;5.13;3.00;;;22.90;36.40;;;;;;6224380;23;20380;-89
2022/06/16 10:07:32;;;;;;;5.33;2.90;;;22.80;36.10;;;;;;6225190;23;20405;-90
2022/06/16 10:10:15;;;;;;;5.40;2.93;;;22.80;36.20;;;;;;6253373;23;20363;-90
2022/06/16 10:12:58;;;;;;;9.90;3.60;;;22.90;35.90;;;;;;6227263;23;20430;-90
2022/06/16 10:15:39;;;;;;;11.23;2.67;;;23.10;35.70;;;;;;6254128;23;20382;-90
2022/06/16 10:18:06;;;;;;;3.97;3.43;;;23.10;36.20;;;;;;6224808;23;20429;-89
2022/06/16 10:20:32;;;;;;;4.90;3.07;;;23.20;35.60;;;;;;6226232;23;20379;-89
2022/06/16 10:23:22;;;;;;;4.13;3.20;;;23.20;36.10;;;;;;6254130;22;20431;-90
2022/06/16 10:25:57;;;;;;;3.97;3.20;;;23.10;37.00;;;;;;6215454;23;20387;-90
2022/06/16 10:28:28;;;;;;;6.37;3.57;;;23.10;36.40;;;;;;6251064;23;20390;-90
2022/06/16 10:30:56;;;;;;;3.73;2.87;;;23.30;36.20;;;;;;6226018;23;20508;-89
2022/06/16 10:33:29;;;;;;;5.80;3.73;;;23.40;36.60;;;;;;6252565;22;20422;-90
2022/06/16 10:36:06;;;;;;;5.27;3.37;;;23.50;36.20;;;;;;6224944;23;20409;-89
2022/06/16 10:38:36;;;;;;;4.90;2.47;;;23.60;35.00;;;;;;6225011;23;20915;-89
2022/06/16 10:41:29;;;;;;;14.57;3.37;;;23.60;34.70;;;;;;6226966;23;20490;-89
2022/06/16 10:43:59;;;;;;;5.57;3.80;;;23.70;35.10;;;;;;6229182;23;20418;-90
2022/06/16 10:46:33;;;;;;;4.20;2.90;;;23.70;34.20;;;;;;6227756;23;20410;-90
2022/06/16 10:49:04;;;;;;;5.10;3.70;;;23.70;33.80;;;;;;6253708;23;20348;-89
2022/06/16 10:51:34;;;;;;;5.97;3.60;;;23.70;34.70;;;;;;6226039;23;20372;-91
2022/06/16 10:54:10;;;;;;;4.80;3.20;;;23.60;34.70;;;;;;6225131;23;20410;-87
2022/06/16 10:56:38;;;;;;;3.73;3.20;;;23.70;35.20;;;;;;6225260;23;20451;-88
2022/06/16 10:59:16;;;;;;;4.33;2.80;;;23.80;34.70;;;;;;6225301;23;20376;-88
2022/06/16 11:02:13;;;;;;;3.90;3.00;;;23.90;34.80;;;;;;6231273;23;20480;-88
2022/06/16 11:04:43;;;;;;;4.70;2.70;;;23.90;35.20;;;;;;6234389;23;20383;-90
2022/06/16 11:07:11;;;;;;;3.23;2.80;;;23.80;35.80;;;;;;6231345;23;20371;-90
2022/06/16 11:09:37;;;;;;;5.10;2.67;;;23.90;35.20;;;;;;6222000;23;20383;-89
2022/06/16 11:12:06;;;;;;;5.53;2.70;;;24.00;34.90;;;;;;6222907;22;20418;-89
2022/06/16 11:14:39;;;;;;;3.97;3.20;;;24.10;35.50;;;;;;6224587;23;20375;-89
2022/06/16 11:17:18;;;;;;;2.70;2.40;;;24.30;34.90;;;;;;6223488;23;20728;-89
2022/06/16 11:19:59;;;;;;;3.97;2.90;;;24.30;34.30;;;;;;6224726;23;20467;-90
2022/06/16 11:22:39;;;;;;;7.33;3.20;;;24.30;34.60;;;;;;6224370;23;20462;-89
2022/06/16 11:25:28;;;;;;;2.67;2.47;;;24.10;34.30;;;;;;6223985;23;20498;-90
2022/06/16 11:27:59;;;;;;;5.97;2.87;;;24.10;34.60;;;;;;6223304;23;20375;-89
2022/06/16 11:30:36;;;;;;;6.60;3.40;;;24.20;34.60;;;;;;6252680;23;20720;-89
2022/06/16 11:33:05;;;;;;;5.17;3.30;;;24.30;34.40;;;;;;6225405;23;20422;-90
2022/06/16 11:35:43;;;;;;;5.30;3.50;;;24.30;34.30;;;;;;6223889;23;20409;-90
2022/06/16 11:38:26;;;;;;;6.13;2.50;;;24.40;34.70;;;;;;6250868;23;20359;-90
2022/06/16 11:41:04;;;;;;;3.40;3.10;;;24.40;34.50;;;;;;6223598;23;20758;-89
2022/06/16 11:44:17;;;;;;;5.50;3.17;;;24.40;34.20;;;;;;6225011;23;20437;-90
2022/06/16 11:46:48;;;;;;;5.03;2.97;;;24.40;34.60;;;;;;6204386;23;20391;-89
2022/06/16 11:49:40;;;;;;;5.83;3.30;;;24.10;35.80;;;;;;6222785;23;20410;-89
2022/06/16 11:52:16;;;;;;;3.13;2.90;;;24.10;35.00;;;;;;6250704;22;20368;-88
2022/06/16 11:55:19;;;;;;;9.80;3.53;;;24.30;34.80;;;;;;6222485;23;20379;-89
2022/06/16 11:57:51;;;;;;;5.53;3.33;;;24.40;34.30;;;;;;6222179;23;20382;-89
2022/06/16 12:00:40;;;;;;;7.77;4.37;;;24.40;34.90;;;;;;6250150;23;20446;-89
2022/06/16 12:03:27;;;;;;;9.20;3.00;;;24.50;34.50;;;;;;6205546;22;20438;-89
2022/06/16 12:05:52;;;;;;;4.57;3.27;;;24.50;35.00;;;;;;6222219;23;20394;-89
2022/06/16 12:09:01;;;;;;;3.50;2.60;;;24.40;36.00;;;;;;6223118;23;20383;-89
2022/06/16 12:11:54;;;;;;;8.57;3.93;;;24.50;34.60;;;;;;6249937;23;20137;-89
2022/06/16 12:14:58;;;;;;;3.60;2.93;;;24.50;35.00;;;;;;6222940;23;20956;-90
2022/06/16 12:17:32;;;;;;;3.20;2.90;;;24.20;35.30;;;;;;6171546;23;20710;-90
2022/06/16 12:20:05;;;;;;;4.70;3.20;;;24.40;34.80;;;;;;6222458;23;20391;-89
2022/06/16 12:22:52;;;;;;;7.17;3.90;;;24.50;34.70;;;;;;6249229;22;20426;-90
2022/06/16 12:25:36;;;;;;;6.07;3.30;;;24.40;35.20;;;;;;6249304;23;20366;-89
2022/06/16 12:28:09;;;;;;;6.60;2.77;;;24.10;35.70;;;;;;6222422;23;20379;-90
2022/06/16 12:30:53;;;;;;;5.70;3.47;;;24.50;35.40;;;;;;6249442;23;20888;-89
2022/06/16 12:33:42;;;;;;;3.70;3.10;;;24.70;34.70;;;;;;6249852;22;20838;-88
2022/06/16 12:36:21;;;;;;;7.43;3.57;;;24.90;34.20;;;;;;6249153;23;20407;-89
2022/06/16 12:38:53;;;;;;;3.50;3.17;;;25.00;34.00;;;;;;6222126;23;20375;-89
2022/06/16 12:41:48;;;;;;;8.30;3.17;;;25.00;33.90;;;;;;6223671;23;20447;-89
2022/06/16 12:44:29;;;;;;;4.83;3.20;;;25.00;34.10;;;;;;6218959;23;20418;-89
2022/06/16 12:47:01;;;;;;;5.83;3.40;;;25.10;33.40;;;;;;6224805;23;20407;-90
2022/06/16 12:49:36;;;;;;;10.50;3.63;;;25.20;33.60;;;;;;6224672;23;20463;-89
2022/06/16 12:52:12;;;;;;;16.17;4.30;;;25.10;34.00;;;;;;6224725;22;20368;-90
2022/06/16 12:54:58;;;;;;;5.83;3.77;;;25.30;33.60;;;;;;6224736;23;20377;-89
2022/06/16 12:57:32;;;;;;;9.97;3.77;;;25.40;32.80;;;;;;6223315;23;20373;-89
2022/06/16 13:00:10;;;;;;;6.27;4.00;;;25.50;32.50;;;;;;6222527;23;20781;-88
2022/06/16 13:02:43;;;;;;;5.27;3.10;;;25.40;33.10;;;;;;6221117;23;20439;-88
2022/06/16 13:05:09;;;;;;;4.80;3.10;;;24.90;34.70;;;;;;6248155;23;20363;-88
2022/06/16 13:07:41;;;;;;;6.00;3.57;;;25.00;33.60;;;;;;6196425;23;20466;-88
2022/06/16 13:10:09;;;;;;;3.43;2.83;;;25.20;33.50;;;;;;6222349;23;20519;-88
2022/06/16 13:12:53;;;;;;;6.13;3.03;;;25.30;34.00;;;;;;6222310;23;20423;-88
2022/06/16 13:15:30;;;;;;;7.43;2.80;;;25.40;33.90;;;;;;6249338;23;20385;-88
2022/06/16 13:18:06;;;;;;;4.80;3.43;;;25.50;33.10;;;;;;6249591;23;20656;-88
2022/06/16 13:20:35;;;;;;;4.03;3.17;;;25.70;32.70;;;;;;6249476;23;20380;-88
2022/06/16 13:23:12;;;;;;;4.83;3.10;;;25.70;32.00;;;;;;6223491;23;20436;-89
2022/06/16 13:25:44;;;;;;;7.27;3.13;;;25.70;32.30;;;;;;6224305;23;20385;-88
2022/06/16 13:28:18;;;;;;;5.13;4.00;;;25.70;33.10;;;;;;6223821;23;20402;-89
2022/06/16 13:31:00;;;;;;;3.73;3.03;;;25.80;33.40;;;;;;6229684;23;20435;-89